createdAt,value
2019-03-31T00:02:19.501Z,9.83
2019-03-31T00:04:52.118Z,11.33
2019-03-31T00:07:24.662Z,10.73
2019-03-31T00:09:57.234Z,10.87
2019-03-31T00:12:29.793Z,10.17
2019-03-31T00:15:02.466Z,10.17
2019-03-31T00:17:35.236Z,11.63
2019-03-31T00:20:08.181Z,12.53
2019-03-31T00:22:40.702Z,11.63
2019-03-31T00:25:13.951Z,10.57
2019-03-31T00:27:46.471Z,9.73
2019-03-31T00:30:18.974Z,11.50
2019-03-31T00:32:51.581Z,9.77
2019-03-31T00:35:24.142Z,9.37
2019-03-31T00:37:56.633Z,11.27
2019-03-31T00:40:29.166Z,11.17
2019-03-31T00:43:01.703Z,11.30
2019-03-31T00:45:34.190Z,9.73
2019-03-31T00:48:06.827Z,12.00
2019-03-31T00:50:40.571Z,11.63
2019-03-31T00:53:13.144Z,10.13
2019-03-31T00:55:45.637Z,12.27
2019-03-31T00:58:18.196Z,11.07
2019-03-31T01:01:08.887Z,12.73
2019-03-31T01:03:42.169Z,12.87
2019-03-31T01:06:17.554Z,13.23
2019-03-31T01:08:50.151Z,13.47
2019-03-31T01:11:27.662Z,12.43
2019-03-31T01:14:00.479Z,14.20
2019-03-31T01:16:34.777Z,16.27
2019-03-31T01:19:07.469Z,15.77
2019-03-31T01:21:40.072Z,16.60
2019-03-31T01:24:12.985Z,17.73
2019-03-31T01:26:45.497Z,15.87
2019-03-31T01:29:18.651Z,21.93
2019-03-31T01:31:51.335Z,21.17
2019-03-31T01:34:24.005Z,26.53
2019-03-31T01:36:56.533Z,28.50
2019-03-31T01:39:29.781Z,29.30
2019-03-31T01:42:02.760Z,34.70
2019-03-31T01:44:35.363Z,32.77
2019-03-31T01:47:08.325Z,34.10
2019-03-31T01:49:40.928Z,32.73
2019-03-31T01:52:13.490Z,31.13
2019-03-31T01:54:46.014Z,29.70
2019-03-31T01:57:18.566Z,24.20
2019-03-31T01:59:51.117Z,22.83
2019-03-31T02:02:28.570Z,26.07
2019-03-31T02:05:01.108Z,28.90
2019-03-31T02:07:33.640Z,33.30
2019-03-31T02:10:07.118Z,33.90
2019-03-31T02:12:39.638Z,42.10
2019-03-31T02:15:12.291Z,38.97
2019-03-31T02:17:44.779Z,43.23
2019-03-31T02:20:17.314Z,39.10
2019-03-31T02:22:49.970Z,39.63
2019-03-31T02:25:22.495Z,39.20
2019-03-31T02:27:55.007Z,38.37
2019-03-31T02:30:28.740Z,39.80
2019-03-31T02:33:01.233Z,39.17
2019-03-31T02:35:33.782Z,38.80
2019-03-31T02:38:06.310Z,39.17
2019-03-31T02:40:38.807Z,40.87
2019-03-31T02:43:11.332Z,42.40
2019-03-31T02:45:43.827Z,39.20
2019-03-31T02:48:16.388Z,37.77
2019-03-31T02:50:51.390Z,39.67
2019-03-31T02:53:24.121Z,41.40
2019-03-31T02:55:58.272Z,43.03
2019-03-31T02:58:32.160Z,43.57
2019-03-31T03:01:05.174Z,46.00
2019-03-31T03:03:40.974Z,41.47
2019-03-31T03:06:15.864Z,40.97
2019-03-31T03:08:52.032Z,39.03
2019-03-31T03:11:27.702Z,42.90
2019-03-31T03:14:03.490Z,42.30
2019-03-31T03:16:35.971Z,39.23
2019-03-31T03:19:08.502Z,43.40
2019-03-31T03:21:40.940Z,40.40
2019-03-31T03:24:13.431Z,41.27
2019-03-31T03:26:45.935Z,43.87
2019-03-31T03:29:18.531Z,49.13
2019-03-31T03:31:51.199Z,42.23
2019-03-31T03:34:23.870Z,41.00
2019-03-31T03:36:56.377Z,40.97
2019-03-31T03:39:28.906Z,40.90
2019-03-31T03:42:01.435Z,40.07
2019-03-31T03:44:33.999Z,41.50
2019-03-31T03:47:06.531Z,42.80
2019-03-31T03:49:39.149Z,42.07
2019-03-31T03:52:11.592Z,42.20
2019-03-31T03:54:44.177Z,44.63
2019-03-31T03:57:16.775Z,39.73
2019-03-31T03:59:49.336Z,40.17
2019-03-31T04:02:21.800Z,39.90
2019-03-31T04:04:54.308Z,43.27
2019-03-31T04:07:26.811Z,36.30
2019-03-31T04:09:59.306Z,40.93
2019-03-31T04:12:31.825Z,41.63
2019-03-31T04:15:04.456Z,45.00
2019-03-31T04:17:36.989Z,41.80
2019-03-31T04:20:09.467Z,41.07
2019-03-31T04:22:42.031Z,44.10
2019-03-31T04:25:14.487Z,43.07
2019-03-31T04:27:47.021Z,44.17
2019-03-31T04:30:19.565Z,41.23
2019-03-31T04:32:52.171Z,42.17
2019-03-31T04:35:24.658Z,44.07
2019-03-31T04:37:57.123Z,42.27
2019-03-31T04:40:29.757Z,44.57
2019-03-31T04:43:02.298Z,42.00
2019-03-31T04:45:34.821Z,42.63
2019-03-31T04:48:07.320Z,41.93
2019-03-31T04:50:39.826Z,42.93
2019-03-31T04:53:12.353Z,43.93
2019-03-31T04:55:44.828Z,41.40
2019-03-31T04:58:17.314Z,39.83
2019-03-31T05:00:49.950Z,39.60
2019-03-31T05:03:22.426Z,39.60
2019-03-31T05:05:54.930Z,36.73
2019-03-31T05:08:27.432Z,36.53
2019-03-31T05:10:59.948Z,34.30
2019-03-31T05:13:33.647Z,35.43
2019-03-31T05:16:06.153Z,40.27
2019-03-31T05:18:38.668Z,34.13
2019-03-31T05:21:11.120Z,34.30
2019-03-31T05:23:43.611Z,33.87
2019-03-31T05:26:16.103Z,36.40
2019-03-31T05:28:48.626Z,34.27
2019-03-31T05:31:21.085Z,40.70
2019-03-31T05:33:53.568Z,36.10
2019-03-31T05:36:26.097Z,35.17
2019-03-31T05:38:58.675Z,35.23
2019-03-31T05:41:31.167Z,34.27
2019-03-31T05:44:05.849Z,36.80
2019-03-31T05:46:37.863Z,35.93
2019-03-31T05:49:10.485Z,32.70
2019-03-31T05:51:42.956Z,32.40
2019-03-31T05:54:15.475Z,37.07
2019-03-31T05:56:47.990Z,38.50
2019-03-31T05:59:20.461Z,33.37
2019-03-31T06:01:52.953Z,32.47
2019-03-31T06:04:33.020Z,38.73
2019-03-31T06:06:59.656Z,38.70
2019-03-31T06:09:32.136Z,35.37
2019-03-31T06:12:04.825Z,33.90
2019-03-31T06:14:37.313Z,35.20
2019-03-31T06:17:09.878Z,33.03
2019-03-31T06:19:42.348Z,29.60
2019-03-31T06:22:14.954Z,30.87
2019-03-31T06:24:47.618Z,30.50
2019-03-31T06:27:21.507Z,28.00
2019-03-31T06:29:54.005Z,25.17
2019-03-31T06:32:26.470Z,28.13
2019-03-31T06:34:58.981Z,25.97
2019-03-31T06:37:31.438Z,24.83
2019-03-31T06:40:04.221Z,24.50
2019-03-31T06:42:36.710Z,25.20
2019-03-31T06:45:09.838Z,25.00
2019-03-31T06:47:42.365Z,23.30
2019-03-31T06:50:15.044Z,26.83
2019-03-31T06:52:47.605Z,25.03
2019-03-31T06:55:20.108Z,24.47
2019-03-31T06:57:52.632Z,25.67
2019-03-31T07:00:25.241Z,21.77
2019-03-31T07:02:57.732Z,23.93
2019-03-31T07:05:30.219Z,24.67
2019-03-31T07:08:02.729Z,24.33
2019-03-31T07:10:35.402Z,25.80
2019-03-31T07:13:07.953Z,25.40
2019-03-31T07:15:40.454Z,26.47
2019-03-31T07:18:15.913Z,25.67
2019-03-31T07:20:47.199Z,24.37
2019-03-31T07:23:19.810Z,25.83
2019-03-31T07:25:52.376Z,25.17
2019-03-31T07:28:24.925Z,25.73
2019-03-31T07:30:59.363Z,23.60
2019-03-31T07:33:31.695Z,26.37
2019-03-31T07:36:04.574Z,25.47
2019-03-31T07:38:39.137Z,23.00
2019-03-31T07:41:13.083Z,25.40
2019-03-31T07:43:45.565Z,26.47
2019-03-31T07:46:18.093Z,25.50
2019-03-31T07:48:50.737Z,24.60
2019-03-31T07:51:23.252Z,24.90
2019-03-31T07:53:55.826Z,24.43
2019-03-31T07:56:28.336Z,28.67
2019-03-31T07:59:00.874Z,26.63
2019-03-31T08:01:33.427Z,25.73
2019-03-31T08:04:12.172Z,23.37
2019-03-31T08:06:44.743Z,22.73
2019-03-31T08:09:17.260Z,25.90
2019-03-31T08:11:49.751Z,25.63
2019-03-31T08:14:22.324Z,26.27
2019-03-31T08:16:54.863Z,28.60
2019-03-31T08:19:27.459Z,26.33
2019-03-31T08:22:00.000Z,25.50
2019-03-31T08:24:43.080Z,24.67
2019-03-31T08:27:17.181Z,24.50
2019-03-31T08:29:59.872Z,25.37
2019-03-31T08:32:23.909Z,23.73
2019-03-31T08:34:56.549Z,26.70
2019-03-31T08:37:29.075Z,22.87
2019-03-31T08:40:01.619Z,24.30
2019-03-31T08:42:35.144Z,21.03
2019-03-31T08:45:08.688Z,20.33
2019-03-31T08:47:41.237Z,20.73
2019-03-31T08:50:14.477Z,21.30
2019-03-31T08:52:47.065Z,18.63
2019-03-31T08:55:19.758Z,18.13
2019-03-31T08:57:52.337Z,16.17
2019-03-31T09:00:56.006Z,17.73
2019-03-31T09:03:28.493Z,17.47
2019-03-31T09:06:02.577Z,18.27
2019-03-31T09:08:35.330Z,17.03
2019-03-31T09:11:07.859Z,21.17
2019-03-31T09:13:40.382Z,18.17
2019-03-31T09:16:13.087Z,18.70
2019-03-31T09:18:46.948Z,19.03
2019-03-31T09:21:19.450Z,19.70
2019-03-31T09:23:51.993Z,21.17
2019-03-31T09:26:24.596Z,19.30
2019-03-31T09:28:57.154Z,17.20
2019-03-31T09:31:29.708Z,20.07
2019-03-31T09:34:02.279Z,14.63
2019-03-31T09:36:34.845Z,17.47
2019-03-31T09:39:08.118Z,19.90
2019-03-31T09:41:40.755Z,14.93
2019-03-31T09:44:13.328Z,16.20
2019-03-31T09:46:45.860Z,19.83
2019-03-31T09:49:18.461Z,15.13
2019-03-31T09:51:50.973Z,16.40
2019-03-31T09:54:23.569Z,15.47
2019-03-31T09:56:56.223Z,15.27
2019-03-31T09:59:28.777Z,15.80
2019-03-31T10:02:01.722Z,15.60
2019-03-31T10:04:34.294Z,17.60
2019-03-31T10:07:07.622Z,17.80
2019-03-31T10:09:40.228Z,17.07
2019-03-31T10:12:12.949Z,18.73
2019-03-31T10:14:46.751Z,13.83
2019-03-31T10:17:19.413Z,15.03
2019-03-31T10:19:51.929Z,14.63
2019-03-31T10:22:24.514Z,14.67
2019-03-31T10:24:57.047Z,14.10
2019-03-31T10:27:29.710Z,12.33
2019-03-31T10:30:02.518Z,15.70
2019-03-31T10:32:36.485Z,13.63
2019-03-31T10:35:09.650Z,10.60
2019-03-31T10:37:42.239Z,13.23
2019-03-31T10:40:14.910Z,12.37
2019-03-31T10:42:47.508Z,11.20
2019-03-31T10:45:20.162Z,11.20
2019-03-31T10:47:52.702Z,11.23
2019-03-31T10:50:25.447Z,12.87
2019-03-31T10:52:57.996Z,11.63
2019-03-31T10:55:30.505Z,10.60
2019-03-31T10:58:03.149Z,10.87
2019-03-31T11:00:37.392Z,9.70
2019-03-31T11:03:10.633Z,10.97
2019-03-31T11:05:43.299Z,11.23
2019-03-31T11:08:15.846Z,9.53
2019-03-31T11:10:48.402Z,10.47
2019-03-31T11:13:20.982Z,10.60
2019-03-31T11:15:53.659Z,10.63
2019-03-31T11:18:26.239Z,11.60
2019-03-31T11:21:22.169Z,11.43
2019-03-31T11:23:54.689Z,11.10
2019-03-31T11:26:27.319Z,12.07
2019-03-31T11:28:59.933Z,12.73
2019-03-31T11:31:32.497Z,11.90
2019-03-31T11:34:04.993Z,10.70
2019-03-31T11:36:37.598Z,12.00
2019-03-31T11:39:16.119Z,10.03
2019-03-31T11:41:47.012Z,10.70
2019-03-31T11:44:19.569Z,12.93
2019-03-31T11:46:52.274Z,10.10
2019-03-31T11:49:24.830Z,11.27
2019-03-31T11:51:57.416Z,9.60
2019-03-31T11:54:30.005Z,9.03
2019-03-31T11:57:02.642Z,9.43
2019-03-31T11:59:35.284Z,10.37
2019-03-31T12:02:07.891Z,8.67
2019-03-31T12:04:40.422Z,9.48
2019-03-31T12:07:26.994Z,10.95
2019-03-31T12:09:47.938Z,10.53
2019-03-31T12:12:21.087Z,9.65
2019-03-31T12:15:00.199Z,10.13
2019-03-31T12:17:29.045Z,9.08
2019-03-31T12:20:01.589Z,9.68
2019-03-31T12:22:34.168Z,10.88
2019-03-31T12:25:07.578Z,8.78
2019-03-31T12:27:40.165Z,10.88
2019-03-31T12:30:12.997Z,9.65
2019-03-31T12:32:45.614Z,9.48
2019-03-31T12:35:18.114Z,8.85
2019-03-31T12:37:50.713Z,8.50
2019-03-31T12:40:42.746Z,8.60
2019-03-31T12:43:15.786Z,8.30
2019-03-31T12:45:48.907Z,7.92
2019-03-31T12:48:22.043Z,9.48
2019-03-31T12:50:55.166Z,8.85
2019-03-31T12:53:28.341Z,8.28
2019-03-31T12:56:01.117Z,8.08
2019-03-31T12:58:34.552Z,8.25
2019-03-31T13:01:07.810Z,7.85
2019-03-31T13:03:40.947Z,7.87
2019-03-31T13:06:16.041Z,9.30
2019-03-31T13:08:49.153Z,8.15
2019-03-31T13:11:23.530Z,7.97
2019-03-31T13:13:56.124Z,8.88
2019-03-31T13:16:29.244Z,9.88
2019-03-31T13:19:03.640Z,8.60
2019-03-31T13:21:37.621Z,10.88
2019-03-31T13:24:10.784Z,8.55
2019-03-31T13:26:44.018Z,9.60
2019-03-31T13:29:16.581Z,7.58
2019-03-31T13:31:49.662Z,7.45
2019-03-31T13:34:22.807Z,8.38
2019-03-31T13:36:55.352Z,8.83
2019-03-31T13:39:27.933Z,9.50
2019-03-31T13:42:00.548Z,9.20
2019-03-31T13:44:33.644Z,7.92
2019-03-31T13:47:06.404Z,8.87
2019-03-31T13:49:38.994Z,9.97
2019-03-31T13:52:11.562Z,7.50
2019-03-31T13:54:44.124Z,7.00
2019-03-31T13:57:16.975Z,7.00
2019-03-31T13:59:49.923Z,7.63
2019-03-31T14:02:22.566Z,8.50
2019-03-31T14:04:55.106Z,7.97
2019-03-31T14:07:27.689Z,7.83
2019-03-31T14:10:00.477Z,7.80
2019-03-31T14:12:33.169Z,7.63
2019-03-31T14:15:18.364Z,6.67
2019-03-31T14:17:40.886Z,8.77
2019-03-31T14:20:13.495Z,7.57
2019-03-31T14:22:47.374Z,7.03
2019-03-31T14:25:20.183Z,6.60
2019-03-31T14:27:53.830Z,6.63
2019-03-31T14:30:26.722Z,6.37
2019-03-31T14:32:59.427Z,6.00
2019-03-31T14:35:31.995Z,6.57
2019-03-31T14:38:05.797Z,6.13
2019-03-31T14:40:38.444Z,5.40
2019-03-31T14:43:11.140Z,5.20
2019-03-31T14:45:43.765Z,6.23
2019-03-31T14:48:17.975Z,5.87
2019-03-31T14:50:50.680Z,6.37
2019-03-31T14:53:23.364Z,6.97
2019-03-31T14:55:55.989Z,5.50
2019-03-31T14:58:28.756Z,5.77
2019-03-31T15:01:01.401Z,5.63
2019-03-31T15:03:33.976Z,6.03
2019-03-31T15:06:07.044Z,5.57
2019-03-31T15:08:53.471Z,7.43
2019-03-31T15:11:15.460Z,5.70
2019-03-31T15:13:48.063Z,5.03
2019-03-31T15:16:20.627Z,4.73
2019-03-31T15:18:53.317Z,4.87
2019-03-31T15:21:26.046Z,4.83
2019-03-31T15:23:58.630Z,4.80
2019-03-31T15:26:31.218Z,5.00
2019-03-31T15:29:03.966Z,6.43
2019-03-31T15:31:36.539Z,5.57
2019-03-31T15:34:09.258Z,5.03
2019-03-31T15:36:42.044Z,5.50
2019-03-31T15:39:17.988Z,4.43
2019-03-31T15:41:50.673Z,5.07
2019-03-31T15:44:23.308Z,4.83
2019-03-31T15:46:55.910Z,4.37
2019-03-31T15:49:28.571Z,5.93
2019-03-31T15:52:01.237Z,4.83
2019-03-31T15:54:33.959Z,3.67
2019-03-31T15:57:06.626Z,4.40
2019-03-31T15:59:49.803Z,5.70
2019-03-31T16:02:25.097Z,3.70
2019-03-31T16:04:57.672Z,3.47
2019-03-31T16:07:30.398Z,4.63
2019-03-31T16:12:34.852Z,3.67
2019-03-31T16:15:07.798Z,4.13
2019-03-31T16:17:39.622Z,3.40
2019-03-31T16:20:12.162Z,4.10
2019-03-31T16:22:45.216Z,2.57
2019-03-31T16:25:40.760Z,3.13
2019-03-31T16:28:12.631Z,3.20
2019-03-31T16:30:44.650Z,4.47
2019-03-31T16:33:16.374Z,3.33
2019-03-31T16:35:48.213Z,3.07
2019-03-31T16:38:21.451Z,5.03
2019-03-31T16:40:53.341Z,3.70
2019-03-31T16:43:25.336Z,7.97
2019-03-31T16:45:57.200Z,4.90
2019-03-31T16:48:29.127Z,5.23
2019-03-31T16:51:02.234Z,4.73
2019-03-31T16:53:35.145Z,4.17
2019-03-31T16:56:06.997Z,4.20
2019-03-31T16:58:38.743Z,5.13
2019-03-31T17:01:10.481Z,3.30
2019-03-31T17:03:42.220Z,5.43
2019-03-31T17:06:14.118Z,3.60
2019-03-31T17:08:45.980Z,3.87
2019-03-31T17:11:17.696Z,5.17
2019-03-31T17:13:49.636Z,2.43
2019-03-31T17:16:21.575Z,5.37
2019-03-31T17:18:53.472Z,2.93
2019-03-31T17:21:25.525Z,3.03
2019-03-31T17:23:57.428Z,3.10
2019-03-31T17:26:29.256Z,4.87
2019-03-31T17:29:01.205Z,3.17
2019-03-31T17:31:33.594Z,6.80
2019-03-31T17:34:05.491Z,3.73
2019-03-31T17:36:37.253Z,3.80
2019-03-31T17:39:09.940Z,3.40
2019-03-31T17:41:41.817Z,4.10
2019-03-31T17:44:13.707Z,3.87
2019-03-31T17:46:47.492Z,4.00
2019-03-31T17:49:19.412Z,4.57
2019-03-31T17:51:51.258Z,6.07
2019-03-31T17:54:23.144Z,3.97
2019-03-31T17:56:55.094Z,5.57
2019-03-31T17:59:26.871Z,3.73
2019-03-31T18:01:58.629Z,4.73
2019-03-31T18:04:30.469Z,5.40
2019-03-31T18:07:02.231Z,4.30
2019-03-31T18:09:33.951Z,5.70
2019-03-31T18:12:05.993Z,4.43
2019-03-31T18:14:39.709Z,3.63
2019-03-31T18:17:12.909Z,6.87
2019-03-31T18:19:44.780Z,3.73
2019-03-31T18:22:17.220Z,4.73
2019-03-31T18:24:49.016Z,5.50
2019-03-31T18:27:20.848Z,5.53
2019-03-31T18:29:52.559Z,5.70
2019-03-31T18:32:24.394Z,6.07
2019-03-31T18:34:57.172Z,2.97
2019-03-31T18:37:28.969Z,3.47
2019-03-31T18:40:00.897Z,6.87
2019-03-31T18:42:32.932Z,6.07
2019-03-31T18:45:05.524Z,6.33
2019-03-31T18:47:38.531Z,5.07
2019-03-31T18:50:10.545Z,6.17
2019-03-31T18:52:42.412Z,5.63
2019-03-31T18:55:24.637Z,3.63
2019-03-31T18:58:21.124Z,5.60
2019-03-31T19:01:09.593Z,5.87
2019-03-31T19:04:06.394Z,5.83
2019-03-31T19:06:53.866Z,5.50
2019-03-31T19:09:42.607Z,3.27
2019-03-31T19:12:33.717Z,4.60
2019-03-31T19:15:27.905Z,2.60
2019-03-31T19:18:24.581Z,5.10
2019-03-31T19:21:27.515Z,6.90
2019-03-31T19:24:17.087Z,4.53
2019-03-31T19:27:06.537Z,5.10
2019-03-31T19:29:58.405Z,4.07
2019-03-31T19:33:01.594Z,4.10
2019-03-31T19:36:01.323Z,8.10
2019-03-31T19:38:54.822Z,6.87
2019-03-31T19:41:45.470Z,4.43
2019-03-31T19:44:41.835Z,6.40
2019-03-31T19:47:23.161Z,3.83
2019-03-31T19:50:19.878Z,4.83
2019-03-31T19:53:10.070Z,6.20
2019-03-31T19:56:06.920Z,3.03
2019-03-31T19:58:46.177Z,5.40
2019-03-31T20:01:39.810Z,6.73
2019-03-31T20:04:29.349Z,5.43
2019-03-31T20:07:19.764Z,4.30
2019-03-31T20:09:57.444Z,4.87
2019-03-31T20:12:48.879Z,4.63
2019-03-31T20:15:35.983Z,4.93
2019-03-31T20:18:32.663Z,6.30
2019-03-31T20:21:31.076Z,5.30
2019-03-31T20:24:17.818Z,5.03
2019-03-31T20:27:11.408Z,3.73
2019-03-31T20:29:50.395Z,4.40
2019-03-31T20:32:41.202Z,3.90
2019-03-31T20:35:35.388Z,4.67
2019-03-31T20:38:12.135Z,4.67
2019-03-31T20:40:49.651Z,2.30
2019-03-31T20:43:31.983Z,5.97
2019-03-31T20:46:05.055Z,5.57
2019-03-31T20:48:36.908Z,2.83
2019-03-31T20:51:08.814Z,6.17
2019-03-31T20:53:40.844Z,4.50
2019-03-31T20:56:12.691Z,4.87
2019-03-31T20:58:44.454Z,6.47
2019-03-31T21:01:18.122Z,3.90
2019-03-31T21:03:49.976Z,4.10
2019-03-31T21:06:21.822Z,4.53
2019-03-31T21:08:53.748Z,4.73
2019-03-31T21:11:25.483Z,3.57
2019-03-31T21:13:57.439Z,4.57
2019-03-31T21:16:30.570Z,4.27
2019-03-31T21:19:02.383Z,4.33
2019-03-31T21:21:34.265Z,5.90
2019-03-31T21:24:06.075Z,4.17
2019-03-31T21:26:37.849Z,4.77
2019-03-31T21:29:09.691Z,4.17
2019-03-31T21:31:41.624Z,4.20
2019-03-31T21:34:13.349Z,4.17
2019-03-31T21:36:45.145Z,4.17
2019-03-31T21:39:16.867Z,6.27
2019-03-31T21:41:48.577Z,6.37
2019-03-31T21:44:22.098Z,5.50
2019-03-31T21:46:55.916Z,3.10
2019-03-31T21:49:27.412Z,4.50
2019-03-31T21:51:59.151Z,4.43
2019-03-31T21:54:31.996Z,4.53
2019-03-31T21:57:03.775Z,4.67
2019-03-31T21:59:35.647Z,4.00
2019-03-31T22:02:07.337Z,5.37
2019-03-31T22:04:39.128Z,3.20
2019-03-31T22:07:11.336Z,3.40
2019-03-31T22:09:43.085Z,4.03
2019-03-31T22:12:14.989Z,5.17
2019-03-31T22:14:46.709Z,4.40
2019-03-31T22:17:18.494Z,4.53
2019-03-31T22:19:50.224Z,4.70
2019-03-31T22:22:21.913Z,5.87
2019-03-31T22:24:53.801Z,4.63
2019-03-31T22:27:25.737Z,5.40
2019-03-31T22:29:57.515Z,4.90
2019-03-31T22:32:29.280Z,3.90
2019-03-31T22:35:00.991Z,5.63
2019-03-31T22:37:32.838Z,6.53
2019-03-31T22:40:04.557Z,4.60
2019-03-31T22:42:36.380Z,5.17
2019-03-31T22:45:08.269Z,4.90
2019-03-31T22:47:40.048Z,2.63
2019-03-31T22:50:11.829Z,3.70
2019-03-31T22:52:43.650Z,4.77
2019-03-31T22:55:15.351Z,6.20
2019-03-31T22:57:47.066Z,4.77
2019-03-31T23:00:23.419Z,4.60
2019-03-31T23:02:55.161Z,3.83
2019-03-31T23:05:26.941Z,4.80
2019-03-31T23:08:02.371Z,7.43
2019-03-31T23:10:34.322Z,3.93
2019-03-31T23:13:07.175Z,3.97
2019-03-31T23:15:38.895Z,4.10
2019-03-31T23:18:10.675Z,5.97
2019-03-31T23:20:43.953Z,5.70
2019-03-31T23:23:18.810Z,4.60
2019-03-31T23:25:50.524Z,4.80
2019-03-31T23:28:22.207Z,5.13
2019-03-31T23:30:55.727Z,7.07
2019-03-31T23:33:27.419Z,4.83
2019-03-31T23:35:59.103Z,5.13
2019-03-31T23:38:30.921Z,5.77
2019-03-31T23:41:02.745Z,5.33
2019-03-31T23:43:34.414Z,3.57
2019-03-31T23:46:06.171Z,4.03
2019-03-31T23:48:37.913Z,3.47
2019-03-31T23:51:09.657Z,6.07
2019-03-31T23:53:41.503Z,4.90
2019-03-31T23:56:13.403Z,3.63
2019-03-31T23:58:45.182Z,3.70
